Atwater, Illinois
Current Conditions -  °F | °C
As of 4:15 AM on Monday 26 Jan 2015 (Local Time) from K3LF Reporting Station
Clear Clear  
Wind Chill: 14°   Ceiling: Unl
Heat Index: 24°   Visibility: 10mi
Dew Point: 18°   Wind: 9mph
Humidity: 80%   Direction: 330°NNW
Pressure: 30.01"   Gusts: NA
Location:  39.33°N, 89.72°W
Report Text: K3LF 261015Z AUTO 33008KT 10SM CLR M05/M08 A3001 RMK AO2 T10461076
Loading
Personal Weather Stations






























Interactive Weather Map New forecast layout! Learn more

10-Day Weather Forecast

Advertisements
Track Severe Weather on mobile